sensor_id;sensor_type;location;lat;lon;timestamp;P1;durP1;ratioP1;P2;durP2;ratioP2
15913;SDS011;8055;51.930;8.840;2022-11-18T00:01:14;38.90;;;21.77;;
15913;SDS011;8055;51.930;8.840;2022-11-18T00:03:41;42.95;;;24.70;;
15913;SDS011;8055;51.930;8.840;2022-11-18T00:06:12;47.50;;;25.10;;
15913;SDS011;8055;51.930;8.840;2022-11-18T00:08:42;49.38;;;25.42;;
15913;SDS011;8055;51.930;8.840;2022-11-18T00:11:08;47.05;;;25.60;;
15913;SDS011;8055;51.930;8.840;2022-11-18T00:13:36;41.83;;;24.65;;
15913;SDS011;8055;51.930;8.840;2022-11-18T00:16:21;39.67;;;23.05;;
15913;SDS011;8055;51.930;8.840;2022-11-18T00:18:46;38.42;;;22.98;;
15913;SDS011;8055;51.930;8.840;2022-11-18T00:21:12;39.65;;;24.13;;
15913;SDS011;8055;51.930;8.840;2022-11-18T00:23:38;43.05;;;24.63;;
15913;SDS011;8055;51.930;8.840;2022-11-18T00:26:05;42.22;;;23.67;;
15913;SDS011;8055;51.930;8.840;2022-11-18T00:28:32;39.03;;;23.35;;
15913;SDS011;8055;51.930;8.840;2022-11-18T00:31:02;40.15;;;24.83;;
15913;SDS011;8055;51.930;8.840;2022-11-18T00:33:30;37.60;;;24.00;;
15913;SDS011;8055;51.930;8.840;2022-11-18T00:35:56;45.42;;;25.50;;
15913;SDS011;8055;51.930;8.840;2022-11-18T00:38:21;39.60;;;23.92;;
15913;SDS011;8055;51.930;8.840;2022-11-18T00:40:47;39.50;;;21.98;;
15913;SDS011;8055;51.930;8.840;2022-11-18T00:43:13;42.33;;;24.38;;
15913;SDS011;8055;51.930;8.840;2022-11-18T00:45:38;34.65;;;22.65;;
15913;SDS011;8055;51.930;8.840;2022-11-18T00:48:04;39.92;;;22.50;;
15913;SDS011;8055;51.930;8.840;2022-11-18T00:50:29;40.72;;;24.40;;
15913;SDS011;8055;51.930;8.840;2022-11-18T00:52:55;37.17;;;22.80;;
15913;SDS011;8055;51.930;8.840;2022-11-18T00:55:20;40.90;;;23.58;;
15913;SDS011;8055;51.930;8.840;2022-11-18T00:57:45;39.28;;;23.00;;
15913;SDS011;8055;51.930;8.840;2022-11-18T01:00:11;32.97;;;21.73;;
15913;SDS011;8055;51.930;8.840;2022-11-18T01:02:36;35.35;;;22.50;;
15913;SDS011;8055;51.930;8.840;2022-11-18T01:05:02;35.55;;;22.33;;
15913;SDS011;8055;51.930;8.840;2022-11-18T01:07:28;33.55;;;21.80;;
15913;SDS011;8055;51.930;8.840;2022-11-18T01:09:54;34.67;;;22.73;;
15913;SDS011;8055;51.930;8.840;2022-11-18T01:12:19;33.25;;;22.80;;
15913;SDS011;8055;51.930;8.840;2022-11-18T01:15:04;40.83;;;24.20;;
15913;SDS011;8055;51.930;8.840;2022-11-18T01:17:29;38.28;;;25.20;;
15913;SDS011;8055;51.930;8.840;2022-11-18T01:19:55;34.20;;;21.73;;
15913;SDS011;8055;51.930;8.840;2022-11-18T01:22:20;32.83;;;21.67;;
15913;SDS011;8055;51.930;8.840;2022-11-18T01:24:46;36.38;;;21.38;;
15913;SDS011;8055;51.930;8.840;2022-11-18T01:27:11;30.80;;;19.65;;
15913;SDS011;8055;51.930;8.840;2022-11-18T01:29:37;30.38;;;20.40;;
15913;SDS011;8055;51.930;8.840;2022-11-18T01:32:02;31.45;;;20.83;;
15913;SDS011;8055;51.930;8.840;2022-11-18T01:34:28;30.08;;;19.10;;
15913;SDS011;8055;51.930;8.840;2022-11-18T01:36:53;33.45;;;20.70;;
15913;SDS011;8055;51.930;8.840;2022-11-18T01:39:20;32.42;;;20.38;;
15913;SDS011;8055;51.930;8.840;2022-11-18T01:41:46;34.78;;;19.65;;
15913;SDS011;8055;51.930;8.840;2022-11-18T01:47:14;33.47;;;20.40;;
15913;SDS011;8055;51.930;8.840;2022-11-18T01:49:39;30.33;;;20.02;;
15913;SDS011;8055;51.930;8.840;2022-11-18T01:52:05;32.20;;;20.70;;
15913;SDS011;8055;51.930;8.840;2022-11-18T01:54:35;35.80;;;22.88;;
15913;SDS011;8055;51.930;8.840;2022-11-18T01:57:05;35.97;;;23.10;;
15913;SDS011;8055;51.930;8.840;2022-11-18T01:59:35;35.83;;;22.17;;
15913;SDS011;8055;51.930;8.840;2022-11-18T02:02:05;35.10;;;23.35;;
15913;SDS011;8055;51.930;8.840;2022-11-18T02:04:35;36.03;;;21.60;;
15913;SDS011;8055;51.930;8.840;2022-11-18T02:07:02;36.30;;;22.80;;
15913;SDS011;8055;51.930;8.840;2022-11-18T02:09:29;35.42;;;22.05;;
15913;SDS011;8055;51.930;8.840;2022-11-18T02:11:54;31.50;;;21.55;;
15913;SDS011;8055;51.930;8.840;2022-11-18T02:14:26;34.70;;;21.08;;
15913;SDS011;8055;51.930;8.840;2022-11-18T02:30:04;33.60;;;18.67;;
15913;SDS011;8055;51.930;8.840;2022-11-18T02:32:35;24.80;;;18.10;;
15913;SDS011;8055;51.930;8.840;2022-11-18T02:37:59;29.88;;;18.67;;
15913;SDS011;8055;51.930;8.840;2022-11-18T02:43:36;32.55;;;19.00;;
15913;SDS011;8055;51.930;8.840;2022-11-18T02:46:07;32.87;;;19.50;;
15913;SDS011;8055;51.930;8.840;2022-11-18T02:48:37;33.17;;;18.33;;
15913;SDS011;8055;51.930;8.840;2022-11-18T02:51:07;30.73;;;18.65;;
15913;SDS011;8055;51.930;8.840;2022-11-18T02:53:34;33.78;;;19.92;;
15913;SDS011;8055;51.930;8.840;2022-11-18T02:56:02;29.85;;;18.35;;
15913;SDS011;8055;51.930;8.840;2022-11-18T02:58:29;32.53;;;18.15;;
15913;SDS011;8055;51.930;8.840;2022-11-18T03:00:55;29.63;;;18.77;;
15913;SDS011;8055;51.930;8.840;2022-11-18T03:03:27;32.33;;;18.25;;
15913;SDS011;8055;51.930;8.840;2022-11-18T03:08:51;32.70;;;18.95;;
15913;SDS011;8055;51.930;8.840;2022-11-18T03:11:19;34.80;;;19.92;;
15913;SDS011;8055;51.930;8.840;2022-11-18T03:21:51;28.45;;;17.30;;
15913;SDS011;8055;51.930;8.840;2022-11-18T03:24:28;26.20;;;17.13;;
15913;SDS011;8055;51.930;8.840;2022-11-18T03:27:19;30.20;;;17.23;;
15913;SDS011;8055;51.930;8.840;2022-11-18T03:29:50;28.70;;;17.08;;
15913;SDS011;8055;51.930;8.840;2022-11-18T03:32:23;28.13;;;16.50;;
15913;SDS011;8055;51.930;8.840;2022-11-18T03:35:00;30.58;;;17.60;;
15913;SDS011;8055;51.930;8.840;2022-11-18T03:37:29;32.72;;;17.55;;
15913;SDS011;8055;51.930;8.840;2022-11-18T03:39:58;34.35;;;18.15;;
15913;SDS011;8055;51.930;8.840;2022-11-18T03:42:32;32.88;;;18.00;;
15913;SDS011;8055;51.930;8.840;2022-11-18T03:45:05;35.05;;;18.98;;
15913;SDS011;8055;51.930;8.840;2022-11-18T03:47:36;37.88;;;19.98;;
15913;SDS011;8055;51.930;8.840;2022-11-18T03:50:18;31.95;;;18.40;;
15913;SDS011;8055;51.930;8.840;2022-11-18T03:52:48;36.20;;;18.92;;
15913;SDS011;8055;51.930;8.840;2022-11-18T03:55:23;32.63;;;18.27;;
15913;SDS011;8055;51.930;8.840;2022-11-18T04:00:51;32.13;;;18.23;;
15913;SDS011;8055;51.930;8.840;2022-11-18T04:03:28;31.42;;;18.35;;
15913;SDS011;8055;51.930;8.840;2022-11-18T04:05:55;32.65;;;19.17;;
15913;SDS011;8055;51.930;8.840;2022-11-18T04:08:38;31.95;;;18.83;;
15913;SDS011;8055;51.930;8.840;2022-11-18T04:11:16;39.05;;;19.45;;
15913;SDS011;8055;51.930;8.840;2022-11-18T04:14:06;32.60;;;18.23;;
15913;SDS011;8055;51.930;8.840;2022-11-18T04:16:39;38.35;;;18.77;;
15913;SDS011;8055;51.930;8.840;2022-11-18T04:19:06;35.67;;;19.55;;
15913;SDS011;8055;51.930;8.840;2022-11-18T04:21:32;39.63;;;21.35;;
15913;SDS011;8055;51.930;8.840;2022-11-18T04:23:57;37.22;;;20.95;;
15913;SDS011;8055;51.930;8.840;2022-11-18T04:26:22;42.15;;;22.80;;
15913;SDS011;8055;51.930;8.840;2022-11-18T04:28:48;38.85;;;21.13;;
15913;SDS011;8055;51.930;8.840;2022-11-18T04:31:13;37.45;;;22.13;;
15913;SDS011;8055;51.930;8.840;2022-11-18T04:33:38;41.63;;;23.02;;
15913;SDS011;8055;51.930;8.840;2022-11-18T04:36:04;41.90;;;21.92;;
15913;SDS011;8055;51.930;8.840;2022-11-18T04:38:30;41.35;;;23.13;;
15913;SDS011;8055;51.930;8.840;2022-11-18T04:40:55;42.00;;;22.35;;
15913;SDS011;8055;51.930;8.840;2022-11-18T04:43:20;38.03;;;21.98;;
15913;SDS011;8055;51.930;8.840;2022-11-18T04:45:46;39.63;;;22.33;;
15913;SDS011;8055;51.930;8.840;2022-11-18T04:48:11;42.97;;;21.92;;
15913;SDS011;8055;51.930;8.840;2022-11-18T04:50:36;42.05;;;22.77;;
15913;SDS011;8055;51.930;8.840;2022-11-18T04:53:02;37.10;;;22.23;;
15913;SDS011;8055;51.930;8.840;2022-11-18T04:55:27;40.10;;;21.98;;
15913;SDS011;8055;51.930;8.840;2022-11-18T04:57:52;40.45;;;23.60;;
15913;SDS011;8055;51.930;8.840;2022-11-18T05:00:18;41.83;;;22.55;;
15913;SDS011;8055;51.930;8.840;2022-11-18T05:02:43;40.38;;;21.73;;
15913;SDS011;8055;51.930;8.840;2022-11-18T05:05:09;43.55;;;23.00;;
15913;SDS011;8055;51.930;8.840;2022-11-18T05:07:34;38.35;;;20.60;;
15913;SDS011;8055;51.930;8.840;2022-11-18T05:10:00;37.80;;;21.92;;
15913;SDS011;8055;51.930;8.840;2022-11-18T05:12:25;39.92;;;21.13;;
15913;SDS011;8055;51.930;8.840;2022-11-18T05:15:09;32.72;;;19.00;;
15913;SDS011;8055;51.930;8.840;2022-11-18T05:17:34;37.25;;;20.27;;
15913;SDS011;8055;51.930;8.840;2022-11-18T05:20:00;40.67;;;20.50;;
15913;SDS011;8055;51.930;8.840;2022-11-18T05:22:25;36.92;;;19.60;;
15913;SDS011;8055;51.930;8.840;2022-11-18T05:24:51;32.75;;;19.05;;
15913;SDS011;8055;51.930;8.840;2022-11-18T05:27:16;32.55;;;18.83;;
15913;SDS011;8055;51.930;8.840;2022-11-18T05:29:42;33.58;;;18.52;;
15913;SDS011;8055;51.930;8.840;2022-11-18T05:32:07;30.90;;;18.77;;
15913;SDS011;8055;51.930;8.840;2022-11-18T05:34:33;34.45;;;20.75;;
15913;SDS011;8055;51.930;8.840;2022-11-18T05:36:58;34.70;;;19.60;;
15913;SDS011;8055;51.930;8.840;2022-11-18T05:39:24;32.40;;;18.27;;
15913;SDS011;8055;51.930;8.840;2022-11-18T05:41:49;37.17;;;20.30;;
15913;SDS011;8055;51.930;8.840;2022-11-18T05:44:33;39.80;;;20.27;;
15913;SDS011;8055;51.930;8.840;2022-11-18T05:46:58;39.30;;;21.05;;
15913;SDS011;8055;51.930;8.840;2022-11-18T05:49:24;36.15;;;20.70;;
15913;SDS011;8055;51.930;8.840;2022-11-18T05:51:49;36.72;;;21.90;;
15913;SDS011;8055;51.930;8.840;2022-11-18T05:54:15;36.17;;;21.23;;
15913;SDS011;8055;51.930;8.840;2022-11-18T05:56:43;39.85;;;21.90;;
15913;SDS011;8055;51.930;8.840;2022-11-18T05:59:11;41.97;;;22.15;;
15913;SDS011;8055;51.930;8.840;2022-11-18T06:07:27;39.45;;;22.98;;
15913;SDS011;8055;51.930;8.840;2022-11-18T06:09:57;41.15;;;22.85;;
15913;SDS011;8055;51.930;8.840;2022-11-18T06:12:25;39.78;;;21.63;;
15913;SDS011;8055;51.930;8.840;2022-11-18T06:15:02;37.92;;;21.20;;
15913;SDS011;8055;51.930;8.840;2022-11-18T06:17:39;41.80;;;21.30;;
15913;SDS011;8055;51.930;8.840;2022-11-18T06:20:11;39.30;;;21.67;;
15913;SDS011;8055;51.930;8.840;2022-11-18T06:22:36;40.63;;;22.83;;
15913;SDS011;8055;51.930;8.840;2022-11-18T06:25:02;35.08;;;21.33;;
15913;SDS011;8055;51.930;8.840;2022-11-18T06:27:28;36.05;;;20.95;;
15913;SDS011;8055;51.930;8.840;2022-11-18T06:29:54;33.33;;;20.08;;
15913;SDS011;8055;51.930;8.840;2022-11-18T06:32:19;33.38;;;19.90;;
15913;SDS011;8055;51.930;8.840;2022-11-18T06:34:44;32.83;;;19.40;;
15913;SDS011;8055;51.930;8.840;2022-11-18T06:39:39;39.65;;;20.85;;
15913;SDS011;8055;51.930;8.840;2022-11-18T06:42:04;36.33;;;20.80;;
15913;SDS011;8055;51.930;8.840;2022-11-18T06:44:30;37.08;;;21.98;;
15913;SDS011;8055;51.930;8.840;2022-11-18T06:46:55;35.83;;;21.05;;
15913;SDS011;8055;51.930;8.840;2022-11-18T06:49:21;35.35;;;20.75;;
15913;SDS011;8055;51.930;8.840;2022-11-18T06:51:48;38.75;;;20.73;;
15913;SDS011;8055;51.930;8.840;2022-11-18T06:54:13;36.63;;;20.52;;
15913;SDS011;8055;51.930;8.840;2022-11-18T06:56:38;34.00;;;19.73;;
15913;SDS011;8055;51.930;8.840;2022-11-18T06:59:04;39.20;;;21.35;;
15913;SDS011;8055;51.930;8.840;2022-11-18T07:01:30;35.33;;;19.38;;
15913;SDS011;8055;51.930;8.840;2022-11-18T07:03:58;35.05;;;19.23;;
15913;SDS011;8055;51.930;8.840;2022-11-18T07:06:26;38.13;;;19.38;;
15913;SDS011;8055;51.930;8.840;2022-11-18T07:08:53;34.17;;;19.20;;
15913;SDS011;8055;51.930;8.840;2022-11-18T07:11:19;35.35;;;19.48;;
15913;SDS011;8055;51.930;8.840;2022-11-18T07:13:46;33.13;;;18.00;;
15913;SDS011;8055;51.930;8.840;2022-11-18T07:16:13;36.00;;;18.15;;
15913;SDS011;8055;51.930;8.840;2022-11-18T07:18:40;34.78;;;18.63;;
15913;SDS011;8055;51.930;8.840;2022-11-18T07:21:07;34.90;;;19.23;;
15913;SDS011;8055;51.930;8.840;2022-11-18T07:23:34;38.30;;;19.67;;
15913;SDS011;8055;51.930;8.840;2022-11-18T07:26:00;32.95;;;17.90;;
15913;SDS011;8055;51.930;8.840;2022-11-18T07:28:26;37.85;;;18.92;;
15913;SDS011;8055;51.930;8.840;2022-11-18T07:31:03;34.95;;;19.20;;
15913;SDS011;8055;51.930;8.840;2022-11-18T07:33:30;32.72;;;18.52;;
15913;SDS011;8055;51.930;8.840;2022-11-18T07:36:01;35.35;;;18.95;;
15913;SDS011;8055;51.930;8.840;2022-11-18T07:38:31;33.83;;;18.42;;
15913;SDS011;8055;51.930;8.840;2022-11-18T07:41:06;34.95;;;18.50;;
15913;SDS011;8055;51.930;8.840;2022-11-18T07:43:34;39.50;;;19.77;;
15913;SDS011;8055;51.930;8.840;2022-11-18T07:46:10;45.92;;;21.38;;
15913;SDS011;8055;51.930;8.840;2022-11-18T07:48:40;57.90;;;23.92;;
15913;SDS011;8055;51.930;8.840;2022-11-18T07:51:06;55.95;;;24.20;;
15913;SDS011;8055;51.930;8.840;2022-11-18T07:53:32;57.22;;;24.33;;
15913;SDS011;8055;51.930;8.840;2022-11-18T07:55:58;46.67;;;22.67;;
15913;SDS011;8055;51.930;8.840;2022-11-18T07:58:25;39.08;;;18.95;;
15913;SDS011;8055;51.930;8.840;2022-11-18T08:00:50;30.05;;;18.45;;
15913;SDS011;8055;51.930;8.840;2022-11-18T08:03:16;36.42;;;19.60;;
15913;SDS011;8055;51.930;8.840;2022-11-18T08:05:41;35.08;;;19.10;;
15913;SDS011;8055;51.930;8.840;2022-11-18T08:08:06;32.72;;;18.42;;
15913;SDS011;8055;51.930;8.840;2022-11-18T08:10:32;31.23;;;17.10;;
15913;SDS011;8055;51.930;8.840;2022-11-18T08:12:58;29.95;;;17.98;;
15913;SDS011;8055;51.930;8.840;2022-11-18T08:15:23;32.05;;;18.27;;
15913;SDS011;8055;51.930;8.840;2022-11-18T08:17:49;28.80;;;16.90;;
15913;SDS011;8055;51.930;8.840;2022-11-18T08:20:15;31.15;;;17.98;;
15913;SDS011;8055;51.930;8.840;2022-11-18T08:22:40;30.20;;;17.48;;
15913;SDS011;8055;51.930;8.840;2022-11-18T08:25:06;32.20;;;17.10;;
15913;SDS011;8055;51.930;8.840;2022-11-18T08:27:32;31.02;;;16.30;;
15913;SDS011;8055;51.930;8.840;2022-11-18T08:29:57;30.90;;;17.50;;
15913;SDS011;8055;51.930;8.840;2022-11-18T08:32:23;27.42;;;15.25;;
15913;SDS011;8055;51.930;8.840;2022-11-18T08:34:49;30.10;;;17.35;;
15913;SDS011;8055;51.930;8.840;2022-11-18T08:37:14;30.77;;;16.75;;
15913;SDS011;8055;51.930;8.840;2022-11-18T08:39:40;28.67;;;15.93;;
15913;SDS011;8055;51.930;8.840;2022-11-18T08:42:05;28.30;;;15.52;;
15913;SDS011;8055;51.930;8.840;2022-11-18T08:44:31;30.05;;;16.60;;
15913;SDS011;8055;51.930;8.840;2022-11-18T08:46:58;28.90;;;16.58;;
15913;SDS011;8055;51.930;8.840;2022-11-18T08:49:24;28.27;;;16.00;;
15913;SDS011;8055;51.930;8.840;2022-11-18T08:51:50;26.50;;;16.17;;
15913;SDS011;8055;51.930;8.840;2022-11-18T08:54:15;30.10;;;15.90;;
15913;SDS011;8055;51.930;8.840;2022-11-18T08:56:42;33.22;;;17.25;;
15913;SDS011;8055;51.930;8.840;2022-11-18T08:59:07;27.60;;;16.20;;
15913;SDS011;8055;51.930;8.840;2022-11-18T09:01:34;31.65;;;16.63;;
15913;SDS011;8055;51.930;8.840;2022-11-18T09:04:01;29.33;;;17.00;;
15913;SDS011;8055;51.930;8.840;2022-11-18T09:06:26;29.33;;;16.65;;
15913;SDS011;8055;51.930;8.840;2022-11-18T09:08:52;29.33;;;16.95;;
15913;SDS011;8055;51.930;8.840;2022-11-18T09:11:21;30.52;;;16.88;;
15913;SDS011;8055;51.930;8.840;2022-11-18T09:13:52;30.63;;;16.17;;
15913;SDS011;8055;51.930;8.840;2022-11-18T09:16:20;29.15;;;16.35;;
15913;SDS011;8055;51.930;8.840;2022-11-18T09:18:47;31.15;;;16.80;;
15913;SDS011;8055;51.930;8.840;2022-11-18T09:21:14;36.50;;;17.58;;
15913;SDS011;8055;51.930;8.840;2022-11-18T09:23:39;31.10;;;16.95;;
15913;SDS011;8055;51.930;8.840;2022-11-18T09:26:06;31.38;;;17.52;;
15913;SDS011;8055;51.930;8.840;2022-11-18T09:28:33;31.77;;;16.90;;
15913;SDS011;8055;51.930;8.840;2022-11-18T09:31:01;32.88;;;17.52;;
15913;SDS011;8055;51.930;8.840;2022-11-18T09:33:28;31.73;;;16.67;;
15913;SDS011;8055;51.930;8.840;2022-11-18T09:35:54;32.47;;;17.27;;
15913;SDS011;8055;51.930;8.840;2022-11-18T09:38:19;35.50;;;18.30;;
15913;SDS011;8055;51.930;8.840;2022-11-18T09:43:21;32.03;;;17.70;;
15913;SDS011;8055;51.930;8.840;2022-11-18T09:45:51;31.35;;;17.02;;
15913;SDS011;8055;51.930;8.840;2022-11-18T09:48:23;32.08;;;17.35;;
15913;SDS011;8055;51.930;8.840;2022-11-18T09:51:12;29.63;;;15.95;;
15913;SDS011;8055;51.930;8.840;2022-11-18T09:53:39;29.98;;;15.45;;
15913;SDS011;8055;51.930;8.840;2022-11-18T09:56:12;36.22;;;18.38;;
15913;SDS011;8055;51.930;8.840;2022-11-18T09:58:40;38.28;;;18.10;;
15913;SDS011;8055;51.930;8.840;2022-11-18T10:01:13;33.67;;;16.15;;
15913;SDS011;8055;51.930;8.840;2022-11-18T10:03:43;34.40;;;14.98;;
15913;SDS011;8055;51.930;8.840;2022-11-18T10:06:12;37.15;;;17.92;;
15913;SDS011;8055;51.930;8.840;2022-11-18T10:11:34;42.72;;;17.40;;
15913;SDS011;8055;51.930;8.840;2022-11-18T10:25:12;27.42;;;15.27;;
15913;SDS011;8055;51.930;8.840;2022-11-18T10:27:39;26.83;;;15.48;;
15913;SDS011;8055;51.930;8.840;2022-11-18T10:30:13;38.58;;;19.33;;
15913;SDS011;8055;51.930;8.840;2022-11-18T10:35:32;33.25;;;16.67;;
15913;SDS011;8055;51.930;8.840;2022-11-18T10:38:00;24.13;;;15.18;;
15913;SDS011;8055;51.930;8.840;2022-11-18T10:40:29;23.70;;;14.55;;
15913;SDS011;8055;51.930;8.840;2022-11-18T10:42:55;23.98;;;14.20;;
15913;SDS011;8055;51.930;8.840;2022-11-18T10:50:44;22.15;;;14.32;;
15913;SDS011;8055;51.930;8.840;2022-11-18T10:53:32;20.10;;;13.48;;
15913;SDS011;8055;51.930;8.840;2022-11-18T10:56:03;20.50;;;13.45;;
15913;SDS011;8055;51.930;8.840;2022-11-18T10:58:31;22.45;;;12.27;;
15913;SDS011;8055;51.930;8.840;2022-11-18T11:04:31;17.17;;;11.80;;
15913;SDS011;8055;51.930;8.840;2022-11-18T11:06:46;19.13;;;12.13;;
15913;SDS011;8055;51.930;8.840;2022-11-18T11:11:38;18.38;;;12.00;;
15913;SDS011;8055;51.930;8.840;2022-11-18T11:16:55;15.73;;;11.93;;
15913;SDS011;8055;51.930;8.840;2022-11-18T11:19:25;17.00;;;11.57;;
15913;SDS011;8055;51.930;8.840;2022-11-18T11:21:57;16.95;;;12.20;;
15913;SDS011;8055;51.930;8.840;2022-11-18T11:24:23;19.00;;;12.60;;
15913;SDS011;8055;51.930;8.840;2022-11-18T11:32:04;17.05;;;11.88;;
15913;SDS011;8055;51.930;8.840;2022-11-18T11:34:59;17.83;;;11.15;;
15913;SDS011;8055;51.930;8.840;2022-11-18T11:40:21;17.55;;;12.32;;
15913;SDS011;8055;51.930;8.840;2022-11-18T11:42:59;19.70;;;13.15;;
15913;SDS011;8055;51.930;8.840;2022-11-18T11:45:30;17.02;;;11.73;;
15913;SDS011;8055;51.930;8.840;2022-11-18T12:07:07;19.27;;;12.35;;
15913;SDS011;8055;51.930;8.840;2022-11-18T12:09:44;21.35;;;14.18;;
15913;SDS011;8055;51.930;8.840;2022-11-18T12:17:46;21.63;;;13.27;;
15913;SDS011;8055;51.930;8.840;2022-11-18T12:28:37;20.17;;;11.98;;
15913;SDS011;8055;51.930;8.840;2022-11-18T12:33:55;20.90;;;12.70;;
15913;SDS011;8055;51.930;8.840;2022-11-18T12:36:36;18.35;;;11.73;;
15913;SDS011;8055;51.930;8.840;2022-11-18T12:44:45;19.27;;;12.75;;
15913;SDS011;8055;51.930;8.840;2022-11-18T12:47:12;25.15;;;14.25;;
15913;SDS011;8055;51.930;8.840;2022-11-18T12:54:57;27.08;;;14.73;;
15913;SDS011;8055;51.930;8.840;2022-11-18T12:57:29;24.65;;;14.93;;
15913;SDS011;8055;51.930;8.840;2022-11-18T12:59:57;22.58;;;13.20;;
15913;SDS011;8055;51.930;8.840;2022-11-18T13:02:23;20.30;;;12.10;;
15913;SDS011;8055;51.930;8.840;2022-11-18T13:07:32;21.48;;;13.02;;
15913;SDS011;8055;51.930;8.840;2022-11-18T13:10:23;20.98;;;12.75;;
15913;SDS011;8055;51.930;8.840;2022-11-18T13:12:51;24.45;;;14.15;;
15913;SDS011;8055;51.930;8.840;2022-11-18T13:15:18;22.10;;;13.50;;
15913;SDS011;8055;51.930;8.840;2022-11-18T13:18:13;20.85;;;12.02;;
15913;SDS011;8055;51.930;8.840;2022-11-18T13:20:41;23.83;;;13.50;;
15913;SDS011;8055;51.930;8.840;2022-11-18T13:25:51;16.45;;;10.30;;
15913;SDS011;8055;51.930;8.840;2022-11-18T13:28:37;20.83;;;11.18;;
15913;SDS011;8055;51.930;8.840;2022-11-18T13:34:17;26.35;;;11.82;;
15913;SDS011;8055;51.930;8.840;2022-11-18T13:36:45;28.42;;;11.65;;
15913;SDS011;8055;51.930;8.840;2022-11-18T13:39:20;24.73;;;11.65;;
15913;SDS011;8055;51.930;8.840;2022-11-18T13:44:25;34.35;;;11.98;;
15913;SDS011;8055;51.930;8.840;2022-11-18T13:46:54;28.23;;;10.88;;
15913;SDS011;8055;51.930;8.840;2022-11-18T13:49:49;33.65;;;11.65;;
15913;SDS011;8055;51.930;8.840;2022-11-18T13:52:36;30.73;;;11.43;;
15913;SDS011;8055;51.930;8.840;2022-11-18T13:55:14;29.63;;;13.30;;
15913;SDS011;8055;51.930;8.840;2022-11-18T13:57:48;16.63;;;10.00;;
15913;SDS011;8055;51.930;8.840;2022-11-18T14:00:20;15.27;;;9.55;;
15913;SDS011;8055;51.930;8.840;2022-11-18T14:02:51;13.15;;;8.85;;
15913;SDS011;8055;51.930;8.840;2022-11-18T14:05:20;13.82;;;8.75;;
15913;SDS011;8055;51.930;8.840;2022-11-18T14:10:28;12.60;;;7.20;;
15913;SDS011;8055;51.930;8.840;2022-11-18T14:13:03;12.55;;;8.02;;
15913;SDS011;8055;51.930;8.840;2022-11-18T14:15:48;11.35;;;6.97;;
15913;SDS011;8055;51.930;8.840;2022-11-18T14:18:22;13.57;;;7.28;;
15913;SDS011;8055;51.930;8.840;2022-11-18T14:20:55;10.95;;;6.85;;
15913;SDS011;8055;51.930;8.840;2022-11-18T14:23:25;10.20;;;7.25;;
15913;SDS011;8055;51.930;8.840;2022-11-18T14:25:53;11.00;;;6.38;;
15913;SDS011;8055;51.930;8.840;2022-11-18T14:28:26;10.63;;;6.32;;
15913;SDS011;8055;51.930;8.840;2022-11-18T14:36:50;14.27;;;8.00;;
15913;SDS011;8055;51.930;8.840;2022-11-18T14:41:49;11.70;;;7.22;;
15913;SDS011;8055;51.930;8.840;2022-11-18T14:44:15;11.80;;;7.07;;
15913;SDS011;8055;51.930;8.840;2022-11-18T14:46:42;11.00;;;6.80;;
15913;SDS011;8055;51.930;8.840;2022-11-18T14:49:11;11.18;;;6.35;;
15913;SDS011;8055;51.930;8.840;2022-11-18T14:51:39;9.98;;;6.28;;
15913;SDS011;8055;51.930;8.840;2022-11-18T14:54:04;10.60;;;7.15;;
15913;SDS011;8055;51.930;8.840;2022-11-18T14:56:30;11.52;;;7.32;;
15913;SDS011;8055;51.930;8.840;2022-11-18T14:58:58;11.85;;;7.35;;
15913;SDS011;8055;51.930;8.840;2022-11-18T15:01:23;12.25;;;7.13;;
15913;SDS011;8055;51.930;8.840;2022-11-18T15:03:51;11.05;;;6.82;;
15913;SDS011;8055;51.930;8.840;2022-11-18T15:06:18;11.15;;;6.88;;
15913;SDS011;8055;51.930;8.840;2022-11-18T15:08:45;11.60;;;6.95;;
15913;SDS011;8055;51.930;8.840;2022-11-18T15:11:12;11.95;;;6.80;;
15913;SDS011;8055;51.930;8.840;2022-11-18T15:13:39;14.00;;;7.47;;
15913;SDS011;8055;51.930;8.840;2022-11-18T15:16:18;12.50;;;7.32;;
15913;SDS011;8055;51.930;8.840;2022-11-18T15:18:52;11.68;;;7.25;;
15913;SDS011;8055;51.930;8.840;2022-11-18T15:21:19;13.35;;;7.70;;
15913;SDS011;8055;51.930;8.840;2022-11-18T15:23:45;13.35;;;7.80;;
15913;SDS011;8055;51.930;8.840;2022-11-18T15:26:31;15.50;;;7.97;;
15913;SDS011;8055;51.930;8.840;2022-11-18T15:29:00;13.98;;;7.88;;
15913;SDS011;8055;51.930;8.840;2022-11-18T15:31:25;14.65;;;8.90;;
15913;SDS011;8055;51.930;8.840;2022-11-18T15:33:51;21.17;;;10.80;;
15913;SDS011;8055;51.930;8.840;2022-11-18T15:36:18;12.23;;;8.05;;
15913;SDS011;8055;51.930;8.840;2022-11-18T15:38:45;11.75;;;7.10;;
15913;SDS011;8055;51.930;8.840;2022-11-18T15:41:19;11.73;;;6.90;;
15913;SDS011;8055;51.930;8.840;2022-11-18T15:43:47;9.82;;;6.13;;
15913;SDS011;8055;51.930;8.840;2022-11-18T15:46:14;11.55;;;6.65;;
15913;SDS011;8055;51.930;8.840;2022-11-18T15:48:40;10.88;;;6.47;;
15913;SDS011;8055;51.930;8.840;2022-11-18T15:51:06;11.55;;;6.85;;
15913;SDS011;8055;51.930;8.840;2022-11-18T15:53:32;13.60;;;6.90;;
15913;SDS011;8055;51.930;8.840;2022-11-18T15:56:14;12.18;;;7.15;;
15913;SDS011;8055;51.930;8.840;2022-11-18T15:58:39;11.60;;;6.77;;
15913;SDS011;8055;51.930;8.840;2022-11-18T16:01:04;12.80;;;7.28;;
15913;SDS011;8055;51.930;8.840;2022-11-18T16:03:30;12.48;;;6.88;;
15913;SDS011;8055;51.930;8.840;2022-11-18T16:05:55;11.43;;;7.05;;
15913;SDS011;8055;51.930;8.840;2022-11-18T16:08:20;12.60;;;6.80;;
15913;SDS011;8055;51.930;8.840;2022-11-18T16:10:46;13.05;;;7.93;;
15913;SDS011;8055;51.930;8.840;2022-11-18T16:13:29;14.10;;;7.38;;
15913;SDS011;8055;51.930;8.840;2022-11-18T16:15:55;12.52;;;7.80;;
15913;SDS011;8055;51.930;8.840;2022-11-18T16:18:20;10.70;;;7.15;;
15913;SDS011;8055;51.930;8.840;2022-11-18T16:20:45;12.90;;;7.20;;
15913;SDS011;8055;51.930;8.840;2022-11-18T16:23:11;15.25;;;8.32;;
15913;SDS011;8055;51.930;8.840;2022-11-18T16:25:41;33.35;;;15.43;;
15913;SDS011;8055;51.930;8.840;2022-11-18T16:28:07;69.65;;;27.33;;
15913;SDS011;8055;51.930;8.840;2022-11-18T16:30:33;49.47;;;23.05;;
15913;SDS011;8055;51.930;8.840;2022-11-18T16:33:16;21.80;;;12.15;;
15913;SDS011;8055;51.930;8.840;2022-11-18T16:35:45;14.05;;;8.30;;
15913;SDS011;8055;51.930;8.840;2022-11-18T16:38:12;9.82;;;6.55;;
15913;SDS011;8055;51.930;8.840;2022-11-18T16:40:37;13.43;;;7.65;;
15913;SDS011;8055;51.930;8.840;2022-11-18T16:43:03;10.77;;;6.72;;
15913;SDS011;8055;51.930;8.840;2022-11-18T16:45:28;16.92;;;7.80;;
15913;SDS011;8055;51.930;8.840;2022-11-18T16:47:54;9.88;;;6.55;;
15913;SDS011;8055;51.930;8.840;2022-11-18T16:50:20;10.10;;;6.78;;
15913;SDS011;8055;51.930;8.840;2022-11-18T16:52:45;12.48;;;7.60;;
15913;SDS011;8055;51.930;8.840;2022-11-18T16:55:10;11.27;;;7.43;;
15913;SDS011;8055;51.930;8.840;2022-11-18T16:57:36;11.30;;;6.88;;
15913;SDS011;8055;51.930;8.840;2022-11-18T17:00:02;9.52;;;6.35;;
15913;SDS011;8055;51.930;8.840;2022-11-18T17:02:28;12.90;;;7.05;;
15913;SDS011;8055;51.930;8.840;2022-11-18T17:04:54;10.00;;;6.22;;
15913;SDS011;8055;51.930;8.840;2022-11-18T17:07:19;10.68;;;6.53;;
15913;SDS011;8055;51.930;8.840;2022-11-18T17:09:45;9.57;;;6.20;;
15913;SDS011;8055;51.930;8.840;2022-11-18T17:12:11;11.80;;;6.95;;
15913;SDS011;8055;51.930;8.840;2022-11-18T17:14:36;11.10;;;7.20;;
15913;SDS011;8055;51.930;8.840;2022-11-18T17:17:04;10.82;;;6.75;;
15913;SDS011;8055;51.930;8.840;2022-11-18T17:19:29;11.15;;;7.53;;
15913;SDS011;8055;51.930;8.840;2022-11-18T17:21:55;10.95;;;7.43;;